• Join FlightAware (Why Join?)
  • Login
  • US Flag 
01:05AM EDT


 

Airport Tracker/Info


-or-


 

Live Flight TrackerFlight Track Log ✈ AAL1459 ✈ 13-Jul-2013 ✈ KORD - KRNO

Flight Track Log - Related Links

Times and Time Zones

All times are in EDT time to prevent confusion due to time zone crossing. See the AAL1459 flight status page for this flight to view local times or setup timezone preferences in your user account.

Time Position Orientation Groundspeed Altitude Reporting Facility
EDT Latitude Longitude Course Direction KTS MPH feet Rate Location/Type
08:23PM 41.9833 -87.8833 270° West 166 191 1,800  Level Chicago TRACON
08:24PM 41.9333 -87.8833 180° South 225 259 3,500 2,100 Climbing Chicago TRACON
08:25PM 41.9333 -87.9833 270° West 300 345 6,000 2,580 Climbing Chicago TRACON
08:26PM 41.9667 -88.3506 270° West  Level FlightAware Approximate
08:27PM 41.9667 -88.5008 270° West  Level FlightAware Approximate
08:28PM 41.9668 -88.6511 270° West  Level FlightAware Approximate
08:28PM 41.9994 -88.2286 290° West 309 356 11,900  Level Chicago Center
08:29PM 41.9667 -88.8013 270° West  Level FlightAware Approximate
08:29PM 42.0267 -88.3586 286° West 354 407 13,300  Level Chicago Center
08:30PM 42.0567 -88.4986 286° West 387 445 15,400 2,040 Climbing Chicago Center
08:31PM 42.0656 -88.6525 275° West 412 474 17,500 1,980 Climbing Chicago Center
08:32PM 42.0703 -88.8100 272° West 423 487 19,600 2,040 Climbing Chicago Center
08:33PM 42.0778 -88.9839 273° West 426 490 21,700 1,740 Climbing Chicago Center
08:34PM 42.0817 -89.1514 272° West 440 506 23,200 1,500 Climbing Chicago Center
08:35PM 42.0856 -89.3242 272° West 458 527 24,900 1,500 Climbing Chicago Center
08:36PM 42.0889 -89.4967 272° West 461 531 26,300 1,380 Climbing Chicago Center
08:37PM 42.0942 -89.7053 272° West 474 545 27,800 1,200 Climbing Chicago Center
08:38PM 42.0978 -89.8858 272° West 479 551 28,900 900 Climbing Chicago Center
08:39PM 42.0997 -90.0753 271° West 488 562 29,700 720 Climbing Chicago Center
08:40PM 42.1019 -90.2664 271° West 508 585 30,400 900 Climbing Chicago Center
08:41PM 42.1031 -90.4594 271° West 517 595 31,600 1,260 Climbing Chicago Center
08:42PM 42.1047 -90.6497 271° West 514 592 33,000 1,320 Climbing Chicago Center
08:43PM 42.1339 -90.8292 282° West 496 571 34,400 1,320 Climbing Chicago Center
08:44PM 42.1700 -90.9972 286° West 473 544 35,800 780 Climbing Chicago Center
08:45PM 42.2042 -91.1667 285° West 469 540 36,000 60 Climbing Chicago Center
08:46PM 42.2458 -91.3683 286° West 467 537 36,000  Level Chicago Center
08:47PM 42.2794 -91.5372 285° West 467 537 36,000  Level Chicago Center
08:48PM 42.3144 -91.7039 286° West 463 533 36,000  Level Chicago Center
08:49PM 42.3469 -91.8719 285° West 462 532 36,000  Level Chicago Center
08:50PM 42.3800 -92.0367 285° West 458 527 36,000 -180 Level Chicago Center
08:51PM 42.4119 -92.2014 285° West 454 522 35,700 -660 Descending Chicago Center
08:52PM 42.4453 -92.3689 285° West 460 529 34,700 -840 Descending Chicago Center
08:53PM 42.4839 -92.5706 285° West 462 532 34,000 -360 Descending Chicago Center
08:54PM 42.5169 -92.7400 285° West 466 536 34,000  Level Chicago Center
08:55PM 42.5481 -92.9064 284° West 460 529 34,000  Level Chicago Center
08:56PM 42.5794 -93.0725 284° West 458 527 34,000  Level Chicago Center
08:57PM 42.6094 -93.2383 284° West 456 525 34,000  Level Minneapolis Center
08:58PM 42.6408 -93.4028 285° West 454 522 34,000  Level Minneapolis Center
08:59PM 42.6725 -93.5703 284° West 459 528 34,000  Level Minneapolis Center
09:00PM 42.7042 -93.7369 285° West 461 531 34,000  Level Minneapolis Center
09:03PM 42.7683 -94.1050 283° West 459 528 34,000  Level Chicago Center
09:04PM 42.7933 -94.2394 284° West 460 529 34,000  Level Minneapolis Center
09:05PM 42.8278 -94.4414 283° West 463 533 34,000  Level Minneapolis Center
09:07PM 42.8867 -94.7836 283° West 453 521 34,000  Level Minneapolis Center
09:08PM 42.9156 -94.9514 283° West 454 522 34,000  Level Minneapolis Center
09:09PM 42.9433 -95.1183 283° West 452 520 34,000  Level Minneapolis Center
09:10PM 42.9719 -95.2847 283° West 451 519 34,000  Level Minneapolis Center
09:11PM 43.0044 -95.4856 283° West 451 519 34,000  Level Minneapolis Center
09:12PM 43.0317 -95.6514 283° West 449 517 34,000  Level Minneapolis Center
09:13PM 43.0589 -95.8156 283° West 445 512 34,000  Level Minneapolis Center
09:14PM 43.0850 -95.9811 282° West 445 512 34,000  Level Minneapolis Center
09:15PM 43.1111 -96.1436 282° West 438 504 34,000  Level Minneapolis Center
09:16PM 43.1361 -96.3047 282° West 433 498 34,000 120 Level Minneapolis Center
09:17PM 43.1617 -96.4672 282° West 435 501 34,300 720 Climbing Minneapolis Center
09:18PM 43.1867 -96.6300 282° West 435 501 35,500 780 Climbing Minneapolis Center
09:19PM 43.2114 -96.7933 282° West 436 502 36,000 240 Climbing Minneapolis Center
09:20PM 43.2411 -96.9883 282° West 435 501 36,000  Level Minneapolis Center
09:21PM 43.2653 -97.1525 281° West 438 504 36,000  Level Minneapolis Center
09:22PM 43.2900 -97.3150 282° West 437 503 36,000  Level Minneapolis Center
09:23PM 43.3133 -97.4772 281° West 434 499 36,000  Level Minneapolis Center
09:24PM 43.3369 -97.6383 281° West 431 496 36,000  Level Minneapolis Center
09:25PM 43.3594 -97.7975 281° West 427 491 36,000  Level Minneapolis Center
09:26PM 43.3814 -97.9553 281° West 423 487 36,000  Level Minneapolis Center
09:27PM 43.4033 -98.1125 281° West 421 484 36,000  Level Minneapolis Center
09:28PM 43.4250 -98.2725 281° West 424 488 36,000  Level Minneapolis Center
09:29PM 43.4431 -98.4000 281° West 426 490 36,000  Level Minneapolis Center
09:30PM 43.4719 -98.6244 280° West 428 493 36,000  Level Minneapolis Center
09:31PM 43.4914 -98.7647 281° West 429 494 36,000  Level Minneapolis Center
09:32PM 43.5133 -98.9278 281° West 432 497 36,000  Level Minneapolis Center
09:33PM 43.5394 -99.1233 281° West 432 497 36,000  Level Minneapolis Center
09:34PM 43.5597 -99.2861 280° West 431 496 36,000  Level Minneapolis Center
09:35PM 43.5803 -99.4475 280° West 429 494 36,000  Level Minneapolis Center
09:36PM 43.6011 -99.6086 280° West 427 491 36,000  Level Minneapolis Center
09:37PM 43.6194 -99.7686 279° West 424 488 36,000  Level Minneapolis Center
09:38PM 43.6408 -99.9306 280° West 426 490 36,000  Level Minneapolis Center
09:39PM 43.6608 -100.0900 280° West 423 487 36,000  Level Minneapolis Center
09:40PM 43.6797 -100.2481 279° West 419 482 36,000  Level Minneapolis Center
09:41PM 43.6981 -100.4094 279° West 422 486 36,000  Level Minneapolis Center
09:42PM 43.7175 -100.5683 280° West 421 484 36,000  Level Minneapolis Center
09:44PM 43.7394 -100.7619 279° West 423 487 36,000  Level Minneapolis Center
09:45PM 43.7581 -100.9231 279° West 424 488 36,000  Level Minneapolis Center
09:45PM 43.7681 -101.0172 278° West 424 488 36,000  Level Denver Center
09:46PM 43.7861 -101.1794 279° West 427 491 36,000  Level Denver Center
09:47PM 43.8044 -101.3403 279° West 423 487 36,000  Level Denver Center
09:48PM 43.8217 -101.5000 279° West 421 484 36,000  Level Denver Center
09:49PM 43.8392 -101.6600 279° West 419 482 36,000  Level Denver Center
09:50PM 43.8567 -101.8183 279° West 418 481 36,000  Level Denver Center
09:51PM 43.8686 -101.9703 276° West 403 464 36,000  Level Denver Center
09:52PM 43.8867 -102.1581 278° West 405 466 36,000  Level Denver Center
09:53PM 43.9044 -102.3161 279° West 411 473 36,000  Level Denver Center
09:54PM 43.9242 -102.4778 280° West 419 482 36,000  Level Denver Center
09:55PM 43.9392 -102.6358 278° West 417 480 36,000  Level Denver Center
09:56PM 43.9553 -102.7953 278° West 417 480 36,000  Level Denver Center
09:57PM 43.9717 -102.9564 278° West 418 481 36,000  Level Denver Center
09:58PM 43.9797 -103.1294 274° West 410 472 36,000  Level Denver Center
10:00PM 43.9833 -103.2811 272° West 410 472 36,000  Level Denver Center
10:01PM 43.9842 -103.4267 271° West 401 461 36,000  Level Denver Center
10:02PM 43.9878 -103.5981 272° West 400 460 36,000  Level Denver Center
10:03PM 43.9908 -103.7472 272° West 403 464 36,000  Level Denver Center
10:04PM 43.9931 -103.9181 271° West 400 460 36,000  Level Denver Center
10:05PM 43.9939 -104.0650 271° West 402 463 36,000  Level Denver Center
10:06PM 43.9964 -104.2175 271° West 410 472 36,000  Level Denver Center
10:07PM 43.9986 -104.3886 271° West 401 461 36,000  Level Denver Center
10:08PM 43.9997 -104.5356 271° West 400 460 36,000 240 Level Denver Center
10:09PM 44.0014 -104.7097 271° West 403 464 36,500 480 Climbing Denver Center
10:10PM 44.0028 -104.8567 271° West 400 460 37,000 240 Climbing Denver Center
10:11PM 44.0031 -105.0053 270° West 402 463 37,000  Level Denver Center
10:12PM 43.9806 -105.1736 260° West 395 455 37,000  Level Denver Center
10:13PM 43.9592 -105.3172 258° West 396 456 37,000  Level Denver Center
10:14PM 43.9336 -105.4833 258° West 396 456 37,000  Level Denver Center
10:15PM 43.9111 -105.6267 258° West 398 458 37,000  Level Denver Center
10:16PM 43.8867 -105.7917 258° West 394 453 37,000  Level Denver Center
10:17PM 43.8644 -105.9297 257° West 389 448 37,000  Level Denver Center
10:18PM 43.8406 -106.0714 257° West 393 452 37,000  Level Denver Center
10:19PM 43.8147 -106.2333 258° West 389 448 37,000 240 Level Denver Center
10:20PM 43.7928 -106.3717 258° West 387 445 37,500 480 Climbing Denver Center
10:21PM 43.7661 -106.5356 257° West 391 450 38,000 240 Climbing Denver Center
10:22PM 43.7439 -106.6756 258° West 390 449 38,000  Level Denver Center
10:23PM 43.7208 -106.8142 257° West 388 447 38,000  Level Denver Center
10:24PM 43.7053 -106.9072 257° West 382 440 38,000  Level Salt Lake Center
10:25PM 43.6797 -107.0506 256° West 382 440 38,000  Level Salt Lake Center
10:26PM 43.6569 -107.1919 257° West 380 437 38,000  Level Salt Lake Center
10:27PM 43.6322 -107.3328 256° West 378 435 38,000  Level Salt Lake Center
10:28PM 43.6072 -107.4778 257° West 385 443 38,000  Level Salt Lake Center
10:29PM 43.5825 -107.6208 257° West 384 442 38,000  Level Salt Lake Center
10:30PM 43.5531 -107.7906 257° West 382 440 38,000  Level Salt Lake Center
10:31PM 43.5281 -107.9336 256° West 384 442 38,000  Level Salt Lake Center
10:32PM 43.5028 -108.0783 257° West 389 448 38,000  Level Salt Lake Center
10:33PM 43.4764 -108.2231 256° West 389 448 38,000  Level Salt Lake Center
10:34PM 43.4453 -108.3658 253° West 390 449 38,000  Level Salt Lake Center
10:35PM 43.4064 -108.5019 249° West 385 443 38,000  Level Salt Lake Center
10:36PM 43.3681 -108.6383 249° West 383 441 38,000  Level Salt Lake Center
10:37PM 43.3294 -108.7733 249° West 381 438 38,000  Level Salt Lake Center
10:38PM 43.2906 -108.9089 249° West 382 440 38,000  Level Salt Lake Center
10:39PM 43.2514 -109.0456 249° West 386 444 38,000  Level Salt Lake Center
10:40PM 43.2122 -109.1797 248° West 381 438 38,000  Level Salt Lake Center
10:41PM 43.1653 -109.3403 248° West 379 436 38,000  Level Salt Lake Center
10:42PM 43.1261 -109.4764 249° West 382 440 38,000  Level Salt Lake Center
10:43PM 43.0861 -109.6117 248° West 385 443 38,000  Level Salt Lake Center
10:44PM 43.0458 -109.7475 248° West 386 444 38,000  Level Salt Lake Center
10:45PM 43.0081 -109.8753 248° West 387 445 38,000  Level Salt Lake Center
10:46PM 42.9625 -110.0261 248° West 385 443 38,000  Level Salt Lake Center
10:47PM 42.9228 -110.1586 248° West 391 450 38,000  Level Salt Lake Center
10:48PM 42.8831 -110.2903 248° West 392 451 38,000  Level Salt Lake Center
10:49PM 42.8361 -110.4453 248° West 395 455 38,000  Level Salt Lake Center
10:50PM 42.7958 -110.5758 247° West 391 450 38,000  Level Salt Lake Center
10:51PM 42.7497 -110.7244 247° West 383 441 38,000  Level Salt Lake Center
10:52PM 42.7083 -110.8589 247° West 387 445 38,000  Level Salt Lake Center
10:53PM 42.6703 -110.9814 247° West 388 447 38,000  Level Salt Lake Center
10:54PM 42.6289 -111.1158 247° West 388 447 38,000  Level Salt Lake Center
10:55PM 42.5858 -111.2517 247° West 393 452 38,000  Level Salt Lake Center
10:56PM 42.5342 -111.4133 247° West 390 449 38,000  Level Salt Lake Center
10:57PM 42.4922 -111.5464 247° West 387 445 38,000  Level Salt Lake Center
10:58PM 42.4506 -111.6797 247° West 386 444 38,000  Level Salt Lake Center
10:59PM 42.4072 -111.8128 246° West 387 445 38,000  Level Salt Lake Center
11:00PM 42.3636 -111.9447 246° West 386 444 38,000  Level Salt Lake Center
11:01PM 42.3214 -112.0778 247° West 386 444 38,000  Level Salt Lake Center
11:02PM 42.2778 -112.2100 246° West 387 445 38,000  Level Salt Lake Center
11:03PM 42.2339 -112.3419 246° West 387 445 38,000  Level Salt Lake Center
11:04PM 42.1900 -112.4772 246° West 392 451 38,000  Level Salt Lake Center
11:05PM 42.1353 -112.6431 246° West 402 463 38,000  Level Salt Lake Center
11:06PM 42.0908 -112.7789 246° West 400 460 38,000  Level Salt Lake Center
11:07PM 42.0467 -112.9122 246° West 395 455 38,000  Level Salt Lake Center
11:08PM 42.0031 -113.0464 246° West 395 455 38,000  Level Salt Lake Center
11:10PM 41.9586 -113.1797 246° West 394 453 38,000  Level Salt Lake Center
11:11PM 41.9136 -113.3144 246° West 396 456 38,000  Level Salt Lake Center
11:12PM 41.8683 -113.4478 246° West 396 456 38,000  Level Salt Lake Center
11:13PM 41.8250 -113.5786 246° West 387 445 38,000  Level Salt Lake Center
11:14PM 41.7806 -113.7094 246° West 387 445 38,000  Level Salt Lake Center
11:15PM 41.7453 -113.8472 251° West 391 450 38,000  Level Salt Lake Center
11:16PM 41.7033 -114.0136 251° West 395 455 38,000  Level Salt Lake Center
11:17PM 41.6672 -114.1506 251° West 393 452 38,000  Level Salt Lake Center
11:18PM 41.6250 -114.2858 247° West 394 453 38,000  Level Salt Lake Center
11:19PM 41.5775 -114.4161 244° Southwest 391 450 38,000  Level Salt Lake Center
11:20PM 41.5303 -114.5486 245° Southwest 395 455 38,000  Level Salt Lake Center
11:21PM 41.4828 -114.6811 244° Southwest 397 457 38,000  Level Salt Lake Center
11:22PM 41.4350 -114.8139 244° Southwest 399 459 38,000  Level Salt Lake Center
11:23PM 41.3867 -114.9469 244° Southwest 396 456 38,000  Level Salt Lake Center
11:24PM 41.3325 -115.0928 244° Southwest 395 455 38,000  Level Salt Lake Center
11:25PM 41.2875 -115.2183 245° Southwest 393 452 38,000  Level Salt Lake Center
11:26PM 41.2419 -115.3425 244° Southwest 392 451 38,000  Level Salt Lake Center
11:27PM 41.1886 -115.4856 244° Southwest 389 448 38,000  Level Salt Lake Center
11:28PM 41.1444 -115.6094 245° Southwest 387 445 38,000  Level Salt Lake Center
11:29PM 41.0981 -115.7311 243° Southwest 388 447 38,000  Level Salt Lake Center
11:30PM 41.0453 -115.8731 244° Southwest 386 444 38,000  Level Salt Lake Center
11:31PM 41.0000 -115.9969 244° Southwest 388 447 38,000  Level Salt Lake Center
11:32PM 40.9533 -116.1194 243° Southwest 390 449 38,000  Level Salt Lake Center
11:33PM 40.8983 -116.2636 243° Southwest 393 452 38,000  Level Salt Lake Center
11:34PM 40.8517 -116.3858 243° Southwest 391 450 38,000  Level Salt Lake Center
11:35PM 40.7969 -116.5283 243° Southwest 392 451 38,000  Level Salt Lake Center
11:36PM 40.7486 -116.6533 243° Southwest 399 459 38,000  Level Salt Lake Center
11:37PM 40.7017 -116.7778 244° Southwest 398 458 38,000  Level Salt Lake Center
11:38PM 40.6447 -116.9219 243° Southwest 401 461 38,000  Level Salt Lake Center
11:39PM 40.5964 -117.0456 243° Southwest 402 463 38,000 -600 Level Salt Lake Center
11:40PM 40.5414 -117.1908 244° Southwest 401 461 36,900 -1,140 Descending Salt Lake Center
11:41PM 40.4925 -117.3136 242° Southwest 399 459 35,800 -1,140 Descending Salt Lake Center
11:42PM 40.4428 -117.4381 242° Southwest 404 465 34,700 -1,200 Descending Salt Lake Center
11:43PM 40.3853 -117.5819 242° Southwest 401 461 33,400 -1,140 Descending Salt Lake Center
11:44PM 40.3347 -117.7081 242° Southwest 407 468 32,400 -720 Descending Salt Lake Center
11:45PM 40.2842 -117.8350 242° Southwest 411 473 32,000 -240 Descending Salt Lake Center
11:46PM 40.3303 -117.9325 302° West 403 464 32,000 -480 Level Salt Lake Center
11:47PM 40.1653 -118.1017 218° Southwest 410 472 31,100 -1,320 Descending Salt Lake Center
11:48PM 40.0831 -118.2383 232° Southwest 425 489 29,400 -1,800 Descending Salt Lake Center
11:49PM 40.0239 -118.3422 233° Southwest 428 493 27,500 -2,400 Descending Salt Lake Center
11:50PM 39.9400 -118.4869 233° Southwest 420 483 24,600 -2,880 Descending Salt Lake Center
11:51PM 39.8733 -118.6022 233° Southwest 404 465 21,700 -2,400 Descending Salt Lake Center
11:52PM 39.8064 -118.7169 233° Southwest 401 461 19,800 -1,680 Descending Salt Lake Center
11:53PM 39.7422 -118.8269 233° Southwest 389 448 18,300 -1,320 Descending Salt Lake Center
11:54PM 39.6800 -118.9342 233° Southwest 378 435 17,200 -1,140 Descending Salt Lake Center
11:55PM 39.6183 -119.0392 233° Southwest 371 427 16,100 -1,140 Descending Salt Lake Center
11:57PM 39.5333 -119.1817 232° Southwest 359 413 14,500 -1,260 Descending Oakland Center
11:58PM 39.4622 -119.3019 233° Southwest 354 407 13,000 -1,260 Descending Oakland Center
11:59PM 39.4044 -119.3978 232° Southwest 345 397 12,000 -540 Descending Oakland Center
12:00AM 39.3522 -119.4850 232° Southwest 325 374 12,000 -480 Level Oakland Center
12:01AM 39.3022 -119.5694 233° Southwest 311 358 11,100 -840 Descending Oakland Center
12:02AM 39.2569 -119.6453 232° Southwest 289 333 10,300 -960 Descending Oakland Center
12:03AM 39.2575 -119.7217 271° West 257 296 9,200 -900 Descending Oakland Center
12:04AM 39.3192 -119.7533 338° Northwest 243 280 8,600 -1,140 Descending Oakland Center
12:06AM 39.4167 -119.7667 354° North 181 208 6,100 -1,500 Descending Northern Cal TRACON